sensor_id;sensor_type;location;lat;lon;timestamp;P1;durP1;ratioP1;P2;durP2;ratioP2
25936;SDS011;13733;51.178;4.450;2022-12-18T00:00:32;92.28;;;37.78;;
25936;SDS011;13733;51.178;4.450;2022-12-18T00:02:57;88.90;;;39.63;;
25936;SDS011;13733;51.178;4.450;2022-12-18T00:05:23;88.93;;;39.10;;
25936;SDS011;13733;51.178;4.450;2022-12-18T00:07:49;89.18;;;38.08;;
25936;SDS011;13733;51.178;4.450;2022-12-18T00:10:14;91.82;;;39.05;;
25936;SDS011;13733;51.178;4.450;2022-12-18T00:12:40;94.80;;;38.80;;
25936;SDS011;13733;51.178;4.450;2022-12-18T00:15:06;93.25;;;38.78;;
25936;SDS011;13733;51.178;4.450;2022-12-18T00:17:32;97.32;;;39.53;;
25936;SDS011;13733;51.178;4.450;2022-12-18T00:19:57;98.00;;;40.40;;
25936;SDS011;13733;51.178;4.450;2022-12-18T00:22:23;94.95;;;40.15;;
25936;SDS011;13733;51.178;4.450;2022-12-18T00:24:49;97.38;;;40.90;;
25936;SDS011;13733;51.178;4.450;2022-12-18T00:27:14;90.43;;;39.10;;
25936;SDS011;13733;51.178;4.450;2022-12-18T00:29:40;99.82;;;39.90;;
25936;SDS011;13733;51.178;4.450;2022-12-18T00:32:06;98.72;;;41.40;;
25936;SDS011;13733;51.178;4.450;2022-12-18T00:34:31;88.72;;;39.83;;
25936;SDS011;13733;51.178;4.450;2022-12-18T00:36:57;90.10;;;40.30;;
25936;SDS011;13733;51.178;4.450;2022-12-18T00:39:23;97.88;;;40.50;;
25936;SDS011;13733;51.178;4.450;2022-12-18T00:41:48;96.38;;;40.05;;
25936;SDS011;13733;51.178;4.450;2022-12-18T00:44:32;91.70;;;39.40;;
25936;SDS011;13733;51.178;4.450;2022-12-18T00:46:58;86.35;;;38.97;;
25936;SDS011;13733;51.178;4.450;2022-12-18T00:49:24;94.05;;;39.47;;
25936;SDS011;13733;51.178;4.450;2022-12-18T00:51:49;94.00;;;41.25;;
25936;SDS011;13733;51.178;4.450;2022-12-18T00:54:15;93.05;;;41.03;;
25936;SDS011;13733;51.178;4.450;2022-12-18T00:56:41;88.80;;;38.80;;
25936;SDS011;13733;51.178;4.450;2022-12-18T00:59:07;94.10;;;39.75;;
25936;SDS011;13733;51.178;4.450;2022-12-18T01:01:33;91.15;;;39.30;;
25936;SDS011;13733;51.178;4.450;2022-12-18T01:03:59;89.53;;;39.83;;
25936;SDS011;13733;51.178;4.450;2022-12-18T01:06:26;90.80;;;38.83;;
25936;SDS011;13733;51.178;4.450;2022-12-18T01:08:51;91.03;;;39.53;;
25936;SDS011;13733;51.178;4.450;2022-12-18T01:11:18;93.63;;;41.55;;
25936;SDS011;13733;51.178;4.450;2022-12-18T01:13:45;93.18;;;39.78;;
25936;SDS011;13733;51.178;4.450;2022-12-18T01:16:11;90.05;;;40.78;;
25936;SDS011;13733;51.178;4.450;2022-12-18T01:18:37;94.38;;;39.63;;
25936;SDS011;13733;51.178;4.450;2022-12-18T01:21:08;91.60;;;39.72;;
25936;SDS011;13733;51.178;4.450;2022-12-18T01:23:36;88.63;;;39.53;;
25936;SDS011;13733;51.178;4.450;2022-12-18T01:26:06;90.55;;;39.13;;
25936;SDS011;13733;51.178;4.450;2022-12-18T01:28:34;91.47;;;39.17;;
25936;SDS011;13733;51.178;4.450;2022-12-18T01:33:56;91.82;;;38.72;;
25936;SDS011;13733;51.178;4.450;2022-12-18T01:36:25;94.63;;;40.67;;
25936;SDS011;13733;51.178;4.450;2022-12-18T01:38:53;91.15;;;38.53;;
25936;SDS011;13733;51.178;4.450;2022-12-18T01:41:21;96.68;;;39.90;;
25936;SDS011;13733;51.178;4.450;2022-12-18T01:43:56;90.30;;;39.78;;
25936;SDS011;13733;51.178;4.450;2022-12-18T01:46:23;92.72;;;40.03;;
25936;SDS011;13733;51.178;4.450;2022-12-18T01:48:55;91.47;;;39.65;;
25936;SDS011;13733;51.178;4.450;2022-12-18T01:51:24;92.55;;;38.35;;
25936;SDS011;13733;51.178;4.450;2022-12-18T01:53:52;95.70;;;38.10;;
25936;SDS011;13733;51.178;4.450;2022-12-18T01:56:18;84.97;;;37.83;;
25936;SDS011;13733;51.178;4.450;2022-12-18T01:58:52;84.03;;;37.15;;
25936;SDS011;13733;51.178;4.450;2022-12-18T02:01:23;84.28;;;37.40;;
25936;SDS011;13733;51.178;4.450;2022-12-18T02:03:49;88.30;;;37.47;;
25936;SDS011;13733;51.178;4.450;2022-12-18T02:06:21;92.57;;;37.92;;
25936;SDS011;13733;51.178;4.450;2022-12-18T02:11:50;86.45;;;37.08;;
25936;SDS011;13733;51.178;4.450;2022-12-18T02:17:07;86.03;;;36.47;;
25936;SDS011;13733;51.178;4.450;2022-12-18T02:22:21;88.78;;;37.38;;
25936;SDS011;13733;51.178;4.450;2022-12-18T02:25:21;81.25;;;36.55;;
25936;SDS011;13733;51.178;4.450;2022-12-18T02:28:00;85.15;;;36.22;;
25936;SDS011;13733;51.178;4.450;2022-12-18T02:30:30;84.50;;;37.00;;
25936;SDS011;13733;51.178;4.450;2022-12-18T02:32:59;75.00;;;35.30;;
25936;SDS011;13733;51.178;4.450;2022-12-18T02:35:29;82.07;;;36.08;;
25936;SDS011;13733;51.178;4.450;2022-12-18T02:37:58;77.60;;;35.17;;
25936;SDS011;13733;51.178;4.450;2022-12-18T02:40:26;76.18;;;34.13;;
25936;SDS011;13733;51.178;4.450;2022-12-18T02:42:52;78.07;;;33.25;;
25936;SDS011;13733;51.178;4.450;2022-12-18T02:45:19;75.00;;;33.70;;
25936;SDS011;13733;51.178;4.450;2022-12-18T02:47:47;77.15;;;34.03;;
25936;SDS011;13733;51.178;4.450;2022-12-18T03:04:12;77.40;;;32.15;;
25936;SDS011;13733;51.178;4.450;2022-12-18T03:06:45;63.08;;;31.02;;
25936;SDS011;13733;51.178;4.450;2022-12-18T03:09:18;72.85;;;32.58;;
25936;SDS011;13733;51.178;4.450;2022-12-18T03:11:54;67.65;;;31.27;;
25936;SDS011;13733;51.178;4.450;2022-12-18T03:14:42;75.05;;;33.22;;
25936;SDS011;13733;51.178;4.450;2022-12-18T03:17:13;71.93;;;32.13;;
25936;SDS011;13733;51.178;4.450;2022-12-18T03:19:42;70.43;;;32.45;;
25936;SDS011;13733;51.178;4.450;2022-12-18T03:22:11;68.50;;;30.95;;
25936;SDS011;13733;51.178;4.450;2022-12-18T03:24:44;64.43;;;30.77;;
25936;SDS011;13733;51.178;4.450;2022-12-18T03:27:13;62.22;;;29.05;;
25936;SDS011;13733;51.178;4.450;2022-12-18T03:29:47;63.35;;;30.05;;
25936;SDS011;13733;51.178;4.450;2022-12-18T03:32:28;66.30;;;29.45;;
25936;SDS011;13733;51.178;4.450;2022-12-18T03:34:59;64.10;;;29.20;;
25936;SDS011;13733;51.178;4.450;2022-12-18T03:37:37;63.45;;;29.45;;
25936;SDS011;13733;51.178;4.450;2022-12-18T03:40:03;72.53;;;30.35;;
25936;SDS011;13733;51.178;4.450;2022-12-18T03:45:29;62.65;;;28.30;;
25936;SDS011;13733;51.178;4.450;2022-12-18T03:48:09;62.30;;;30.35;;
25936;SDS011;13733;51.178;4.450;2022-12-18T03:50:59;61.80;;;29.67;;
25936;SDS011;13733;51.178;4.450;2022-12-18T03:56:31;64.43;;;29.58;;
25936;SDS011;13733;51.178;4.450;2022-12-18T04:01:33;63.80;;;28.75;;
25936;SDS011;13733;51.178;4.450;2022-12-18T04:04:02;55.38;;;27.70;;
25936;SDS011;13733;51.178;4.450;2022-12-18T04:06:34;63.00;;;27.90;;
25936;SDS011;13733;51.178;4.450;2022-12-18T04:09:03;66.57;;;29.10;;
25936;SDS011;13733;51.178;4.450;2022-12-18T04:11:31;55.22;;;26.60;;
25936;SDS011;13733;51.178;4.450;2022-12-18T04:13:58;56.00;;;26.73;;
25936;SDS011;13733;51.178;4.450;2022-12-18T04:16:24;62.95;;;27.30;;
25936;SDS011;13733;51.178;4.450;2022-12-18T04:21:22;60.47;;;27.77;;
25936;SDS011;13733;51.178;4.450;2022-12-18T04:23:49;60.38;;;27.55;;
25936;SDS011;13733;51.178;4.450;2022-12-18T04:26:17;61.25;;;26.75;;
25936;SDS011;13733;51.178;4.450;2022-12-18T04:29:07;57.75;;;27.02;;
25936;SDS011;13733;51.178;4.450;2022-12-18T04:31:34;54.75;;;27.17;;
25936;SDS011;13733;51.178;4.450;2022-12-18T04:34:02;59.55;;;26.38;;
25936;SDS011;13733;51.178;4.450;2022-12-18T04:36:34;54.80;;;26.30;;
25936;SDS011;13733;51.178;4.450;2022-12-18T04:39:00;53.55;;;25.05;;
25936;SDS011;13733;51.178;4.450;2022-12-18T04:41:25;57.45;;;26.02;;
25936;SDS011;13733;51.178;4.450;2022-12-18T04:43:52;59.72;;;26.42;;
25936;SDS011;13733;51.178;4.450;2022-12-18T04:46:18;54.22;;;24.83;;
25936;SDS011;13733;51.178;4.450;2022-12-18T04:48:45;56.63;;;26.17;;
25936;SDS011;13733;51.178;4.450;2022-12-18T04:51:11;57.85;;;26.67;;
25936;SDS011;13733;51.178;4.450;2022-12-18T04:53:38;50.25;;;24.20;;
25936;SDS011;13733;51.178;4.450;2022-12-18T04:58:34;52.45;;;25.63;;
25936;SDS011;13733;51.178;4.450;2022-12-18T05:01:00;49.63;;;24.60;;
25936;SDS011;13733;51.178;4.450;2022-12-18T05:03:26;48.25;;;22.60;;
25936;SDS011;13733;51.178;4.450;2022-12-18T05:05:52;47.65;;;22.02;;
25936;SDS011;13733;51.178;4.450;2022-12-18T05:08:18;49.80;;;23.52;;
25936;SDS011;13733;51.178;4.450;2022-12-18T05:10:44;51.60;;;25.00;;
25936;SDS011;13733;51.178;4.450;2022-12-18T05:13:10;45.05;;;21.90;;
25936;SDS011;13733;51.178;4.450;2022-12-18T05:15:35;47.78;;;22.23;;
25936;SDS011;13733;51.178;4.450;2022-12-18T05:18:01;49.90;;;23.35;;
25936;SDS011;13733;51.178;4.450;2022-12-18T05:20:28;46.35;;;21.23;;
25936;SDS011;13733;51.178;4.450;2022-12-18T05:22:53;48.45;;;21.98;;
25936;SDS011;13733;51.178;4.450;2022-12-18T05:25:19;50.78;;;22.88;;
25936;SDS011;13733;51.178;4.450;2022-12-18T05:27:45;48.92;;;22.27;;
25936;SDS011;13733;51.178;4.450;2022-12-18T05:30:11;47.08;;;23.10;;
25936;SDS011;13733;51.178;4.450;2022-12-18T05:32:38;45.53;;;22.33;;
25936;SDS011;13733;51.178;4.450;2022-12-18T05:35:04;51.30;;;23.58;;
25936;SDS011;13733;51.178;4.450;2022-12-18T05:37:31;46.90;;;22.17;;
25936;SDS011;13733;51.178;4.450;2022-12-18T05:39:56;46.50;;;23.25;;
25936;SDS011;13733;51.178;4.450;2022-12-18T05:42:22;47.33;;;22.02;;
25936;SDS011;13733;51.178;4.450;2022-12-18T05:44:48;46.80;;;22.33;;
25936;SDS011;13733;51.178;4.450;2022-12-18T05:47:14;47.80;;;22.63;;
25936;SDS011;13733;51.178;4.450;2022-12-18T05:49:39;52.70;;;21.42;;
25936;SDS011;13733;51.178;4.450;2022-12-18T05:52:05;47.72;;;23.70;;
25936;SDS011;13733;51.178;4.450;2022-12-18T05:54:31;41.95;;;21.30;;
25936;SDS011;13733;51.178;4.450;2022-12-18T05:56:57;40.63;;;20.65;;
25936;SDS011;13733;51.178;4.450;2022-12-18T05:59:23;44.70;;;21.30;;
25936;SDS011;13733;51.178;4.450;2022-12-18T06:01:49;49.95;;;20.95;;
25936;SDS011;13733;51.178;4.450;2022-12-18T06:04:14;44.28;;;21.20;;
25936;SDS011;13733;51.178;4.450;2022-12-18T06:06:40;43.55;;;21.33;;
25936;SDS011;13733;51.178;4.450;2022-12-18T06:09:06;45.70;;;21.67;;
25936;SDS011;13733;51.178;4.450;2022-12-18T06:11:37;40.47;;;19.88;;
25936;SDS011;13733;51.178;4.450;2022-12-18T06:14:04;41.65;;;20.30;;
25936;SDS011;13733;51.178;4.450;2022-12-18T06:16:31;41.22;;;20.38;;
25936;SDS011;13733;51.178;4.450;2022-12-18T06:19:01;43.13;;;20.00;;
25936;SDS011;13733;51.178;4.450;2022-12-18T06:21:28;42.67;;;20.27;;
25936;SDS011;13733;51.178;4.450;2022-12-18T06:23:54;44.60;;;20.23;;
25936;SDS011;13733;51.178;4.450;2022-12-18T06:26:20;42.78;;;20.08;;
25936;SDS011;13733;51.178;4.450;2022-12-18T06:28:46;40.35;;;19.00;;
25936;SDS011;13733;51.178;4.450;2022-12-18T06:31:13;36.85;;;18.92;;
25936;SDS011;13733;51.178;4.450;2022-12-18T06:33:39;37.70;;;17.48;;
25936;SDS011;13733;51.178;4.450;2022-12-18T06:36:06;38.00;;;19.27;;
25936;SDS011;13733;51.178;4.450;2022-12-18T06:38:34;40.75;;;18.65;;
25936;SDS011;13733;51.178;4.450;2022-12-18T06:41:06;45.03;;;18.73;;
25936;SDS011;13733;51.178;4.450;2022-12-18T06:43:34;40.42;;;18.15;;
25936;SDS011;13733;51.178;4.450;2022-12-18T06:46:00;39.50;;;19.42;;
25936;SDS011;13733;51.178;4.450;2022-12-18T06:48:26;40.05;;;18.85;;
25936;SDS011;13733;51.178;4.450;2022-12-18T06:50:52;38.67;;;18.25;;
25936;SDS011;13733;51.178;4.450;2022-12-18T06:53:18;35.58;;;18.50;;
25936;SDS011;13733;51.178;4.450;2022-12-18T06:55:43;36.58;;;18.95;;
25936;SDS011;13733;51.178;4.450;2022-12-18T06:58:09;39.45;;;18.70;;
25936;SDS011;13733;51.178;4.450;2022-12-18T07:00:35;38.17;;;18.05;;
25936;SDS011;13733;51.178;4.450;2022-12-18T07:03:01;38.20;;;18.23;;
25936;SDS011;13733;51.178;4.450;2022-12-18T07:05:27;33.75;;;17.75;;
25936;SDS011;13733;51.178;4.450;2022-12-18T07:07:52;36.50;;;18.35;;
25936;SDS011;13733;51.178;4.450;2022-12-18T07:10:18;38.08;;;17.70;;
25936;SDS011;13733;51.178;4.450;2022-12-18T07:12:44;38.60;;;18.23;;
25936;SDS011;13733;51.178;4.450;2022-12-18T07:15:10;35.63;;;19.02;;
25936;SDS011;13733;51.178;4.450;2022-12-18T07:17:35;37.67;;;18.23;;
25936;SDS011;13733;51.178;4.450;2022-12-18T07:20:03;36.75;;;17.73;;
25936;SDS011;13733;51.178;4.450;2022-12-18T07:22:29;37.10;;;17.70;;
25936;SDS011;13733;51.178;4.450;2022-12-18T07:24:55;37.15;;;18.67;;
25936;SDS011;13733;51.178;4.450;2022-12-18T07:27:21;39.50;;;18.73;;
25936;SDS011;13733;51.178;4.450;2022-12-18T07:29:48;39.10;;;18.77;;
25936;SDS011;13733;51.178;4.450;2022-12-18T07:32:13;35.47;;;18.25;;
25936;SDS011;13733;51.178;4.450;2022-12-18T07:34:39;35.70;;;18.05;;
25936;SDS011;13733;51.178;4.450;2022-12-18T07:37:05;38.22;;;18.00;;
25936;SDS011;13733;51.178;4.450;2022-12-18T07:39:31;37.65;;;17.05;;
25936;SDS011;13733;51.178;4.450;2022-12-18T07:41:56;35.22;;;17.50;;
25936;SDS011;13733;51.178;4.450;2022-12-18T07:44:42;37.72;;;18.25;;
25936;SDS011;13733;51.178;4.450;2022-12-18T07:47:07;34.28;;;17.33;;
25936;SDS011;13733;51.178;4.450;2022-12-18T07:49:33;34.55;;;16.20;;
25936;SDS011;13733;51.178;4.450;2022-12-18T07:51:59;34.55;;;17.27;;
25936;SDS011;13733;51.178;4.450;2022-12-18T07:54:25;36.75;;;18.65;;
25936;SDS011;13733;51.178;4.450;2022-12-18T07:56:51;33.40;;;17.02;;
25936;SDS011;13733;51.178;4.450;2022-12-18T07:59:17;33.65;;;18.02;;
25936;SDS011;13733;51.178;4.450;2022-12-18T08:01:43;33.13;;;17.38;;
25936;SDS011;13733;51.178;4.450;2022-12-18T08:04:09;35.70;;;16.98;;
25936;SDS011;13733;51.178;4.450;2022-12-18T08:06:35;31.50;;;17.80;;
25936;SDS011;13733;51.178;4.450;2022-12-18T08:09:01;34.95;;;17.40;;
25936;SDS011;13733;51.178;4.450;2022-12-18T08:11:29;32.67;;;15.45;;
25936;SDS011;13733;51.178;4.450;2022-12-18T08:13:56;34.58;;;16.23;;
25936;SDS011;13733;51.178;4.450;2022-12-18T08:16:23;28.60;;;16.05;;
25936;SDS011;13733;51.178;4.450;2022-12-18T08:18:51;31.15;;;15.32;;
25936;SDS011;13733;51.178;4.450;2022-12-18T08:21:22;31.70;;;15.85;;
25936;SDS011;13733;51.178;4.450;2022-12-18T08:23:50;30.05;;;16.40;;
25936;SDS011;13733;51.178;4.450;2022-12-18T08:26:17;37.10;;;17.15;;
25936;SDS011;13733;51.178;4.450;2022-12-18T08:28:43;35.35;;;17.70;;
25936;SDS011;13733;51.178;4.450;2022-12-18T08:31:09;28.02;;;15.10;;
25936;SDS011;13733;51.178;4.450;2022-12-18T08:33:35;31.38;;;15.18;;
25936;SDS011;13733;51.178;4.450;2022-12-18T08:36:03;30.65;;;16.88;;
25936;SDS011;13733;51.178;4.450;2022-12-18T08:40:59;31.27;;;15.70;;
25936;SDS011;13733;51.178;4.450;2022-12-18T08:43:25;29.98;;;15.45;;
25936;SDS011;13733;51.178;4.450;2022-12-18T08:46:10;29.40;;;14.55;;
25936;SDS011;13733;51.178;4.450;2022-12-18T08:48:36;30.67;;;15.27;;
25936;SDS011;13733;51.178;4.450;2022-12-18T08:51:03;32.72;;;15.90;;
25936;SDS011;13733;51.178;4.450;2022-12-18T08:53:29;34.50;;;15.18;;
25936;SDS011;13733;51.178;4.450;2022-12-18T08:55:55;30.35;;;14.68;;
25936;SDS011;13733;51.178;4.450;2022-12-18T08:58:21;29.80;;;15.35;;
25936;SDS011;13733;51.178;4.450;2022-12-18T09:00:47;33.63;;;15.38;;
25936;SDS011;13733;51.178;4.450;2022-12-18T09:03:13;23.85;;;14.13;;
25936;SDS011;13733;51.178;4.450;2022-12-18T09:05:40;28.10;;;15.45;;
25936;SDS011;13733;51.178;4.450;2022-12-18T09:08:07;31.73;;;14.15;;
25936;SDS011;13733;51.178;4.450;2022-12-18T09:10:33;26.77;;;15.13;;
25936;SDS011;13733;51.178;4.450;2022-12-18T09:12:59;29.75;;;14.77;;
25936;SDS011;13733;51.178;4.450;2022-12-18T09:15:25;24.58;;;14.27;;
25936;SDS011;13733;51.178;4.450;2022-12-18T09:17:51;27.40;;;14.90;;
25936;SDS011;13733;51.178;4.450;2022-12-18T09:20:18;26.25;;;13.77;;
25936;SDS011;13733;51.178;4.450;2022-12-18T09:22:44;26.92;;;13.82;;
25936;SDS011;13733;51.178;4.450;2022-12-18T09:25:09;25.27;;;14.13;;
25936;SDS011;13733;51.178;4.450;2022-12-18T09:27:35;26.38;;;14.18;;
25936;SDS011;13733;51.178;4.450;2022-12-18T09:30:02;26.60;;;14.13;;
25936;SDS011;13733;51.178;4.450;2022-12-18T09:32:28;23.95;;;13.68;;
25936;SDS011;13733;51.178;4.450;2022-12-18T09:34:55;24.88;;;13.50;;
25936;SDS011;13733;51.178;4.450;2022-12-18T09:37:21;26.95;;;14.43;;
25936;SDS011;13733;51.178;4.450;2022-12-18T09:39:46;22.95;;;13.30;;
25936;SDS011;13733;51.178;4.450;2022-12-18T09:42:14;23.90;;;13.60;;
25936;SDS011;13733;51.178;4.450;2022-12-18T09:44:48;27.92;;;14.73;;
25936;SDS011;13733;51.178;4.450;2022-12-18T09:49:49;27.33;;;14.70;;
25936;SDS011;13733;51.178;4.450;2022-12-18T09:54:56;88.70;;;37.80;;
25936;SDS011;13733;51.178;4.450;2022-12-18T09:57:35;89.32;;;36.90;;
25936;SDS011;13733;51.178;4.450;2022-12-18T10:00:20;185.65;;;66.32;;
25936;SDS011;13733;51.178;4.450;2022-12-18T10:02:48;30.55;;;17.33;;
25936;SDS011;13733;51.178;4.450;2022-12-18T10:05:17;24.23;;;14.68;;
25936;SDS011;13733;51.178;4.450;2022-12-18T10:07:55;26.70;;;14.77;;
25936;SDS011;13733;51.178;4.450;2022-12-18T10:14:01;22.25;;;13.40;;
25936;SDS011;13733;51.178;4.450;2022-12-18T10:16:22;21.90;;;12.55;;
25936;SDS011;13733;51.178;4.450;2022-12-18T10:27:25;22.02;;;13.48;;
25936;SDS011;13733;51.178;4.450;2022-12-18T10:29:52;26.98;;;13.98;;
25936;SDS011;13733;51.178;4.450;2022-12-18T10:32:23;40.97;;;21.10;;
25936;SDS011;13733;51.178;4.450;2022-12-18T10:34:55;26.40;;;15.00;;
25936;SDS011;13733;51.178;4.450;2022-12-18T10:37:23;23.52;;;13.80;;
25936;SDS011;13733;51.178;4.450;2022-12-18T10:40:13;26.83;;;14.85;;
25936;SDS011;13733;51.178;4.450;2022-12-18T10:42:39;24.50;;;13.50;;
25936;SDS011;13733;51.178;4.450;2022-12-18T10:47:36;23.88;;;13.32;;
25936;SDS011;13733;51.178;4.450;2022-12-18T10:50:11;23.65;;;14.48;;
25936;SDS011;13733;51.178;4.450;2022-12-18T10:52:59;22.60;;;13.93;;
25936;SDS011;13733;51.178;4.450;2022-12-18T10:55:35;23.70;;;14.23;;
25936;SDS011;13733;51.178;4.450;2022-12-18T10:58:15;25.38;;;13.20;;
25936;SDS011;13733;51.178;4.450;2022-12-18T11:01:01;23.40;;;13.02;;
25936;SDS011;13733;51.178;4.450;2022-12-18T11:04:13;23.27;;;13.88;;
25936;SDS011;13733;51.178;4.450;2022-12-18T11:06:20;22.40;;;13.27;;
25936;SDS011;13733;51.178;4.450;2022-12-18T11:11:57;26.80;;;14.10;;
25936;SDS011;13733;51.178;4.450;2022-12-18T11:14:47;22.33;;;14.00;;
25936;SDS011;13733;51.178;4.450;2022-12-18T11:17:19;21.52;;;12.82;;
25936;SDS011;13733;51.178;4.450;2022-12-18T11:19:59;24.23;;;13.20;;
25936;SDS011;13733;51.178;4.450;2022-12-18T11:22:30;20.95;;;12.25;;
25936;SDS011;13733;51.178;4.450;2022-12-18T11:27:24;24.77;;;12.70;;
25936;SDS011;13733;51.178;4.450;2022-12-18T11:29:50;23.60;;;13.85;;
25936;SDS011;13733;51.178;4.450;2022-12-18T11:32:25;24.85;;;14.60;;
25936;SDS011;13733;51.178;4.450;2022-12-18T11:34:59;22.25;;;13.60;;
25936;SDS011;13733;51.178;4.450;2022-12-18T11:38:02;21.10;;;13.48;;
25936;SDS011;13733;51.178;4.450;2022-12-18T11:40:43;22.27;;;13.55;;
25936;SDS011;13733;51.178;4.450;2022-12-18T11:43:18;22.63;;;13.75;;
25936;SDS011;13733;51.178;4.450;2022-12-18T11:45:53;19.98;;;12.07;;
25936;SDS011;13733;51.178;4.450;2022-12-18T11:48:37;21.48;;;13.35;;
25936;SDS011;13733;51.178;4.450;2022-12-18T11:51:15;19.48;;;13.00;;
25936;SDS011;13733;51.178;4.450;2022-12-18T11:53:51;22.45;;;12.88;;
25936;SDS011;13733;51.178;4.450;2022-12-18T11:59:08;18.98;;;12.98;;
25936;SDS011;13733;51.178;4.450;2022-12-18T12:01:50;22.45;;;13.15;;
25936;SDS011;13733;51.178;4.450;2022-12-18T12:09:39;30.80;;;17.35;;
25936;SDS011;13733;51.178;4.450;2022-12-18T12:15:02;27.85;;;15.80;;
25936;SDS011;13733;51.178;4.450;2022-12-18T12:17:37;30.23;;;17.05;;
25936;SDS011;13733;51.178;4.450;2022-12-18T12:20:14;31.90;;;18.48;;
25936;SDS011;13733;51.178;4.450;2022-12-18T12:26:06;22.27;;;14.93;;
25936;SDS011;13733;51.178;4.450;2022-12-18T12:29:05;20.27;;;13.75;;
25936;SDS011;13733;51.178;4.450;2022-12-18T12:32:00;26.05;;;14.88;;
25936;SDS011;13733;51.178;4.450;2022-12-18T12:34:53;22.83;;;13.43;;
25936;SDS011;13733;51.178;4.450;2022-12-18T12:40:29;23.92;;;14.05;;
25936;SDS011;13733;51.178;4.450;2022-12-18T12:42:59;22.85;;;13.60;;
25936;SDS011;13733;51.178;4.450;2022-12-18T12:48:43;20.55;;;13.27;;
25936;SDS011;13733;51.178;4.450;2022-12-18T12:51:25;21.88;;;14.25;;
25936;SDS011;13733;51.178;4.450;2022-12-18T12:54:03;23.95;;;13.40;;
25936;SDS011;13733;51.178;4.450;2022-12-18T13:04:44;22.48;;;14.98;;
25936;SDS011;13733;51.178;4.450;2022-12-18T13:07:16;23.87;;;14.70;;
25936;SDS011;13733;51.178;4.450;2022-12-18T13:15:30;21.90;;;14.23;;
25936;SDS011;13733;51.178;4.450;2022-12-18T13:18:04;25.55;;;15.82;;
25936;SDS011;13733;51.178;4.450;2022-12-18T13:25:54;33.75;;;19.70;;
25936;SDS011;13733;51.178;4.450;2022-12-18T13:36:45;27.00;;;15.65;;
25936;SDS011;13733;51.178;4.450;2022-12-18T13:41:42;29.55;;;16.25;;
25936;SDS011;13733;51.178;4.450;2022-12-18T13:44:24;27.95;;;16.48;;
25936;SDS011;13733;51.178;4.450;2022-12-18T13:46:56;24.33;;;14.75;;
25936;SDS011;13733;51.178;4.450;2022-12-18T13:49:24;28.65;;;15.68;;
25936;SDS011;13733;51.178;4.450;2022-12-18T13:51:55;24.83;;;16.40;;
25936;SDS011;13733;51.178;4.450;2022-12-18T13:57:01;25.33;;;17.05;;
25936;SDS011;13733;51.178;4.450;2022-12-18T13:59:34;24.55;;;15.27;;
25936;SDS011;13733;51.178;4.450;2022-12-18T14:02:19;22.95;;;15.27;;
25936;SDS011;13733;51.178;4.450;2022-12-18T14:04:51;22.08;;;14.30;;
25936;SDS011;13733;51.178;4.450;2022-12-18T14:07:25;30.08;;;16.52;;
25936;SDS011;13733;51.178;4.450;2022-12-18T14:09:56;23.52;;;14.70;;
25936;SDS011;13733;51.178;4.450;2022-12-18T14:12:25;24.52;;;14.68;;
25936;SDS011;13733;51.178;4.450;2022-12-18T14:15:20;26.40;;;15.25;;
25936;SDS011;13733;51.178;4.450;2022-12-18T14:18:01;24.17;;;14.63;;
25936;SDS011;13733;51.178;4.450;2022-12-18T14:20:44;27.27;;;15.95;;
25936;SDS011;13733;51.178;4.450;2022-12-18T14:26:00;34.08;;;20.85;;
25936;SDS011;13733;51.178;4.450;2022-12-18T14:28:27;42.00;;;25.63;;
25936;SDS011;13733;51.178;4.450;2022-12-18T14:30:54;30.45;;;18.75;;
25936;SDS011;13733;51.178;4.450;2022-12-18T14:33:22;25.90;;;17.25;;
25936;SDS011;13733;51.178;4.450;2022-12-18T14:41:17;29.90;;;18.92;;
25936;SDS011;13733;51.178;4.450;2022-12-18T14:43:45;28.10;;;17.88;;
25936;SDS011;13733;51.178;4.450;2022-12-18T14:46:27;26.65;;;16.95;;
25936;SDS011;13733;51.178;4.450;2022-12-18T14:48:55;30.20;;;17.50;;
25936;SDS011;13733;51.178;4.450;2022-12-18T14:51:26;28.42;;;16.98;;
25936;SDS011;13733;51.178;4.450;2022-12-18T15:01:28;28.08;;;18.83;;
25936;SDS011;13733;51.178;4.450;2022-12-18T15:09:39;28.33;;;18.33;;
25936;SDS011;13733;51.178;4.450;2022-12-18T15:18:10;29.85;;;18.08;;
25936;SDS011;13733;51.178;4.450;2022-12-18T15:20:47;29.83;;;18.13;;
25936;SDS011;13733;51.178;4.450;2022-12-18T15:23:19;29.98;;;18.35;;
25936;SDS011;13733;51.178;4.450;2022-12-18T15:25:48;30.08;;;18.48;;
25936;SDS011;13733;51.178;4.450;2022-12-18T15:28:23;29.70;;;17.42;;
25936;SDS011;13733;51.178;4.450;2022-12-18T15:33:27;32.95;;;19.25;;
25936;SDS011;13733;51.178;4.450;2022-12-18T15:35:59;33.13;;;19.73;;
25936;SDS011;13733;51.178;4.450;2022-12-18T15:38:26;35.53;;;20.42;;
25936;SDS011;13733;51.178;4.450;2022-12-18T15:40:54;32.83;;;19.70;;
25936;SDS011;13733;51.178;4.450;2022-12-18T15:43:21;36.53;;;20.05;;
25936;SDS011;13733;51.178;4.450;2022-12-18T15:46:11;33.30;;;18.92;;
25936;SDS011;13733;51.178;4.450;2022-12-18T15:48:44;30.73;;;18.42;;
25936;SDS011;13733;51.178;4.450;2022-12-18T15:51:18;31.35;;;18.17;;
25936;SDS011;13733;51.178;4.450;2022-12-18T15:53:51;36.22;;;19.05;;
25936;SDS011;13733;51.178;4.450;2022-12-18T15:56:20;33.80;;;19.10;;
25936;SDS011;13733;51.178;4.450;2022-12-18T15:59:11;33.67;;;19.08;;
25936;SDS011;13733;51.178;4.450;2022-12-18T16:01:43;33.00;;;19.20;;
25936;SDS011;13733;51.178;4.450;2022-12-18T16:04:11;33.70;;;19.88;;
25936;SDS011;13733;51.178;4.450;2022-12-18T16:06:38;37.15;;;20.75;;
25936;SDS011;13733;51.178;4.450;2022-12-18T16:09:05;33.83;;;19.52;;
25936;SDS011;13733;51.178;4.450;2022-12-18T16:11:32;32.00;;;19.52;;
25936;SDS011;13733;51.178;4.450;2022-12-18T16:14:15;37.53;;;21.77;;
25936;SDS011;13733;51.178;4.450;2022-12-18T16:16:44;35.00;;;20.58;;
25936;SDS011;13733;51.178;4.450;2022-12-18T16:19:11;33.28;;;20.38;;
25936;SDS011;13733;51.178;4.450;2022-12-18T16:21:37;32.70;;;19.30;;
25936;SDS011;13733;51.178;4.450;2022-12-18T16:24:03;38.42;;;21.58;;
25936;SDS011;13733;51.178;4.450;2022-12-18T16:26:29;37.13;;;21.10;;
25936;SDS011;13733;51.178;4.450;2022-12-18T16:28:54;38.05;;;21.67;;
25936;SDS011;13733;51.178;4.450;2022-12-18T16:31:20;44.50;;;25.05;;
25936;SDS011;13733;51.178;4.450;2022-12-18T16:33:46;35.47;;;21.60;;
25936;SDS011;13733;51.178;4.450;2022-12-18T16:36:12;38.78;;;22.77;;
25936;SDS011;13733;51.178;4.450;2022-12-18T16:38:38;43.05;;;24.48;;
25936;SDS011;13733;51.178;4.450;2022-12-18T16:41:07;36.92;;;20.17;;
25936;SDS011;13733;51.178;4.450;2022-12-18T16:43:59;37.80;;;21.58;;
25936;SDS011;13733;51.178;4.450;2022-12-18T16:46:25;38.13;;;21.27;;
25936;SDS011;13733;51.178;4.450;2022-12-18T16:48:51;36.30;;;20.55;;
25936;SDS011;13733;51.178;4.450;2022-12-18T16:51:16;35.20;;;20.73;;
25936;SDS011;13733;51.178;4.450;2022-12-18T16:53:42;37.15;;;21.40;;
25936;SDS011;13733;51.178;4.450;2022-12-18T16:56:08;34.75;;;21.50;;
25936;SDS011;13733;51.178;4.450;2022-12-18T16:58:34;39.35;;;20.65;;
25936;SDS011;13733;51.178;4.450;2022-12-18T17:01:01;36.58;;;21.67;;
25936;SDS011;13733;51.178;4.450;2022-12-18T17:03:32;37.95;;;20.45;;
25936;SDS011;13733;51.178;4.450;2022-12-18T17:06:01;41.65;;;23.17;;